sensor_id;sensor_type;location;lat;lon;timestamp;temperature;humidity
52034;DHT22;38045;52.988;6.536;2023-02-28T00:01:22;4.20;99.90
52034;DHT22;38045;52.988;6.536;2023-02-28T00:03:48;4.20;99.90
52034;DHT22;38045;52.988;6.536;2023-02-28T00:06:14;4.20;99.90
52034;DHT22;38045;52.988;6.536;2023-02-28T00:08:39;4.20;99.90
52034;DHT22;38045;52.988;6.536;2023-02-28T00:11:08;4.20;99.90
52034;DHT22;38045;52.988;6.536;2023-02-28T00:13:36;4.20;99.90
52034;DHT22;38045;52.988;6.536;2023-02-28T00:16:05;4.10;99.90
52034;DHT22;38045;52.988;6.536;2023-02-28T00:18:31;4.10;99.90
52034;DHT22;38045;52.988;6.536;2023-02-28T00:20:57;4.10;99.90
52034;DHT22;38045;52.988;6.536;2023-02-28T00:23:23;4.10;99.90
52034;DHT22;38045;52.988;6.536;2023-02-28T00:25:50;4.10;99.90
52034;DHT22;38045;52.988;6.536;2023-02-28T00:28:16;4.10;99.90
52034;DHT22;38045;52.988;6.536;2023-02-28T00:30:42;4.10;99.90
52034;DHT22;38045;52.988;6.536;2023-02-28T00:33:10;4.10;99.90
52034;DHT22;38045;52.988;6.536;2023-02-28T00:35:36;4.10;99.90
52034;DHT22;38045;52.988;6.536;2023-02-28T00:38:02;4.10;99.90
52034;DHT22;38045;52.988;6.536;2023-02-28T00:40:28;4.10;99.90
52034;DHT22;38045;52.988;6.536;2023-02-28T00:42:54;4.10;99.90
52034;DHT22;38045;52.988;6.536;2023-02-28T00:45:19;4.10;99.90
52034;DHT22;38045;52.988;6.536;2023-02-28T00:47:45;4.10;99.90
52034;DHT22;38045;52.988;6.536;2023-02-28T00:50:12;4.10;99.90
52034;DHT22;38045;52.988;6.536;2023-02-28T00:52:37;4.10;99.90
52034;DHT22;38045;52.988;6.536;2023-02-28T00:55:03;4.00;99.90
52034;DHT22;38045;52.988;6.536;2023-02-28T00:57:29;4.10;99.90
52034;DHT22;38045;52.988;6.536;2023-02-28T00:59:54;4.00;99.90
52034;DHT22;38045;52.988;6.536;2023-02-28T01:02:21;4.00;99.90
52034;DHT22;38045;52.988;6.536;2023-02-28T01:04:47;4.00;99.90
52034;DHT22;38045;52.988;6.536;2023-02-28T01:07:13;4.00;99.90
52034;DHT22;38045;52.988;6.536;2023-02-28T01:09:40;4.00;99.90
52034;DHT22;38045;52.988;6.536;2023-02-28T01:12:07;4.00;99.90
52034;DHT22;38045;52.988;6.536;2023-02-28T01:14:33;4.00;99.90
52034;DHT22;38045;52.988;6.536;2023-02-28T01:17:00;4.00;99.90
52034;DHT22;38045;52.988;6.536;2023-02-28T01:19:25;4.00;99.90
52034;DHT22;38045;52.988;6.536;2023-02-28T01:21:51;4.00;99.90
52034;DHT22;38045;52.988;6.536;2023-02-28T01:24:17;4.00;99.90
52034;DHT22;38045;52.988;6.536;2023-02-28T01:26:42;4.00;99.90
52034;DHT22;38045;52.988;6.536;2023-02-28T01:29:08;4.00;99.90
52034;DHT22;38045;52.988;6.536;2023-02-28T01:31:34;4.00;99.90
52034;DHT22;38045;52.988;6.536;2023-02-28T01:33:59;4.00;99.90
52034;DHT22;38045;52.988;6.536;2023-02-28T01:36:25;4.00;99.90
52034;DHT22;38045;52.988;6.536;2023-02-28T01:38:51;4.10;99.90
52034;DHT22;38045;52.988;6.536;2023-02-28T01:41:23;4.10;99.90
52034;DHT22;38045;52.988;6.536;2023-02-28T01:46:15;4.10;99.90
52034;DHT22;38045;52.988;6.536;2023-02-28T01:51:21;4.10;99.90
52034;DHT22;38045;52.988;6.536;2023-02-28T01:53:51;4.00;99.90
52034;DHT22;38045;52.988;6.536;2023-02-28T01:56:22;4.00;99.90
52034;DHT22;38045;52.988;6.536;2023-02-28T01:58:51;3.90;99.90
52034;DHT22;38045;52.988;6.536;2023-02-28T02:01:17;3.90;99.90
52034;DHT22;38045;52.988;6.536;2023-02-28T02:04:01;3.90;99.90
52034;DHT22;38045;52.988;6.536;2023-02-28T02:06:36;3.90;99.90
52034;DHT22;38045;52.988;6.536;2023-02-28T02:09:03;3.90;99.90
52034;DHT22;38045;52.988;6.536;2023-02-28T02:11:29;3.90;99.90
52034;DHT22;38045;52.988;6.536;2023-02-28T02:20:11;3.90;99.90
52034;DHT22;38045;52.988;6.536;2023-02-28T02:25:40;3.80;99.90
52034;DHT22;38045;52.988;6.536;2023-02-28T02:28:32;3.80;99.90
52034;DHT22;38045;52.988;6.536;2023-02-28T02:37:24;3.70;99.90
52034;DHT22;38045;52.988;6.536;2023-02-28T02:40:07;3.70;99.90
52034;DHT22;38045;52.988;6.536;2023-02-28T02:42:52;3.60;99.90
52034;DHT22;38045;52.988;6.536;2023-02-28T02:45:38;3.60;99.90
52034;DHT22;38045;52.988;6.536;2023-02-28T02:48:08;3.60;99.90
52034;DHT22;38045;52.988;6.536;2023-02-28T02:50:59;3.60;99.90
52034;DHT22;38045;52.988;6.536;2023-02-28T02:53:34;3.60;99.90
52034;DHT22;38045;52.988;6.536;2023-02-28T02:56:03;3.50;99.90
52034;DHT22;38045;52.988;6.536;2023-02-28T02:58:37;3.50;99.90
52034;DHT22;38045;52.988;6.536;2023-02-28T03:01:12;3.50;99.90
52034;DHT22;38045;52.988;6.536;2023-02-28T03:03:39;3.50;99.90
52034;DHT22;38045;52.988;6.536;2023-02-28T03:06:05;3.50;99.90
52034;DHT22;38045;52.988;6.536;2023-02-28T03:08:35;3.40;99.90
52034;DHT22;38045;52.988;6.536;2023-02-28T03:11:04;3.40;99.90
52034;DHT22;38045;52.988;6.536;2023-02-28T03:19:26;3.30;99.90
52034;DHT22;38045;52.988;6.536;2023-02-28T03:22:14;3.30;99.90
52034;DHT22;38045;52.988;6.536;2023-02-28T03:24:50;3.20;99.90
52034;DHT22;38045;52.988;6.536;2023-02-28T03:29:57;3.20;99.90
52034;DHT22;38045;52.988;6.536;2023-02-28T03:33:03;3.10;99.90
52034;DHT22;38045;52.988;6.536;2023-02-28T03:35:22;3.20;99.90
52034;DHT22;38045;52.988;6.536;2023-02-28T03:38:10;3.10;99.90
52034;DHT22;38045;52.988;6.536;2023-02-28T03:40:43;3.00;99.90
52034;DHT22;38045;52.988;6.536;2023-02-28T03:43:15;3.00;99.90
52034;DHT22;38045;52.988;6.536;2023-02-28T03:45:43;3.00;99.90
52034;DHT22;38045;52.988;6.536;2023-02-28T03:48:38;2.90;99.90
52034;DHT22;38045;52.988;6.536;2023-02-28T03:51:06;3.00;99.90
52034;DHT22;38045;52.988;6.536;2023-02-28T03:53:42;2.90;99.90
52034;DHT22;38045;52.988;6.536;2023-02-28T03:56:31;2.90;99.90
52034;DHT22;38045;52.988;6.536;2023-02-28T03:59:22;2.90;99.90
52034;DHT22;38045;52.988;6.536;2023-02-28T04:01:51;2.90;99.90
52034;DHT22;38045;52.988;6.536;2023-02-28T04:04:17;2.90;99.90
52034;DHT22;38045;52.988;6.536;2023-02-28T04:06:44;2.80;99.90
52034;DHT22;38045;52.988;6.536;2023-02-28T04:09:12;2.80;99.90
52034;DHT22;38045;52.988;6.536;2023-02-28T04:11:44;2.80;99.90
52034;DHT22;38045;52.988;6.536;2023-02-28T04:14:11;2.60;99.90
52034;DHT22;38045;52.988;6.536;2023-02-28T04:16:39;2.80;99.90
52034;DHT22;38045;52.988;6.536;2023-02-28T04:19:07;2.80;99.90
52034;DHT22;38045;52.988;6.536;2023-02-28T04:21:41;2.80;99.90
52034;DHT22;38045;52.988;6.536;2023-02-28T04:24:15;2.80;99.90
52034;DHT22;38045;52.988;6.536;2023-02-28T04:26:44;2.80;99.90
52034;DHT22;38045;52.988;6.536;2023-02-28T04:29:12;2.70;99.90
52034;DHT22;38045;52.988;6.536;2023-02-28T04:31:38;2.80;99.90
52034;DHT22;38045;52.988;6.536;2023-02-28T04:34:04;2.70;99.90
52034;DHT22;38045;52.988;6.536;2023-02-28T04:36:30;2.70;99.90
52034;DHT22;38045;52.988;6.536;2023-02-28T04:38:57;2.70;99.90
52034;DHT22;38045;52.988;6.536;2023-02-28T04:41:23;2.70;99.90
52034;DHT22;38045;52.988;6.536;2023-02-28T04:43:49;2.70;99.90
52034;DHT22;38045;52.988;6.536;2023-02-28T04:46:14;2.70;99.90
52034;DHT22;38045;52.988;6.536;2023-02-28T04:48:41;2.70;99.90
52034;DHT22;38045;52.988;6.536;2023-02-28T04:51:08;2.70;99.90
52034;DHT22;38045;52.988;6.536;2023-02-28T04:53:34;2.70;99.90
52034;DHT22;38045;52.988;6.536;2023-02-28T04:56:00;2.70;99.90
52034;DHT22;38045;52.988;6.536;2023-02-28T04:58:26;2.70;99.90
52034;DHT22;38045;52.988;6.536;2023-02-28T05:00:53;2.70;99.90
52034;DHT22;38045;52.988;6.536;2023-02-28T05:03:19;2.70;99.90
52034;DHT22;38045;52.988;6.536;2023-02-28T05:05:46;2.70;99.90
52034;DHT22;38045;52.988;6.536;2023-02-28T05:08:12;2.60;99.90
52034;DHT22;38045;52.988;6.536;2023-02-28T05:10:38;2.60;99.90
52034;DHT22;38045;52.988;6.536;2023-02-28T05:13:03;2.50;99.90
52034;DHT22;38045;52.988;6.536;2023-02-28T05:15:29;2.50;99.90
52034;DHT22;38045;52.988;6.536;2023-02-28T05:17:55;2.50;99.90
52034;DHT22;38045;52.988;6.536;2023-02-28T05:20:20;2.50;99.90
52034;DHT22;38045;52.988;6.536;2023-02-28T05:22:46;2.50;99.90
52034;DHT22;38045;52.988;6.536;2023-02-28T05:25:16;2.50;99.90
52034;DHT22;38045;52.988;6.536;2023-02-28T05:27:43;2.40;99.90
52034;DHT22;38045;52.988;6.536;2023-02-28T05:30:09;2.40;99.90
52034;DHT22;38045;52.988;6.536;2023-02-28T05:32:38;2.30;99.90
52034;DHT22;38045;52.988;6.536;2023-02-28T05:35:09;2.30;99.90
52034;DHT22;38045;52.988;6.536;2023-02-28T05:37:35;2.20;99.90
52034;DHT22;38045;52.988;6.536;2023-02-28T05:40:01;2.20;99.90
52034;DHT22;38045;52.988;6.536;2023-02-28T05:42:27;2.10;99.90
52034;DHT22;38045;52.988;6.536;2023-02-28T05:44:53;2.10;99.90
52034;DHT22;38045;52.988;6.536;2023-02-28T05:47:19;2.00;99.90
52034;DHT22;38045;52.988;6.536;2023-02-28T05:49:44;2.00;99.90
52034;DHT22;38045;52.988;6.536;2023-02-28T05:52:10;2.10;99.90
52034;DHT22;38045;52.988;6.536;2023-02-28T05:54:36;2.00;99.90
52034;DHT22;38045;52.988;6.536;2023-02-28T05:57:01;2.00;99.90
52034;DHT22;38045;52.988;6.536;2023-02-28T05:59:27;2.00;99.90
52034;DHT22;38045;52.988;6.536;2023-02-28T06:01:52;2.00;99.90
52034;DHT22;38045;52.988;6.536;2023-02-28T06:04:20;2.00;99.90
52034;DHT22;38045;52.988;6.536;2023-02-28T06:06:46;2.00;99.90
52034;DHT22;38045;52.988;6.536;2023-02-28T06:09:12;2.00;99.90
52034;DHT22;38045;52.988;6.536;2023-02-28T06:11:38;2.00;99.90
52034;DHT22;38045;52.988;6.536;2023-02-28T06:14:05;2.00;99.90
52034;DHT22;38045;52.988;6.536;2023-02-28T06:16:32;2.00;99.90
52034;DHT22;38045;52.988;6.536;2023-02-28T06:18:59;1.90;99.90
52034;DHT22;38045;52.988;6.536;2023-02-28T06:21:26;1.90;99.90
52034;DHT22;38045;52.988;6.536;2023-02-28T06:23:52;1.90;99.90
52034;DHT22;38045;52.988;6.536;2023-02-28T06:26:18;2.00;99.90
52034;DHT22;38045;52.988;6.536;2023-02-28T06:28:44;1.90;99.90
52034;DHT22;38045;52.988;6.536;2023-02-28T06:31:12;1.80;99.90
52034;DHT22;38045;52.988;6.536;2023-02-28T06:33:38;1.90;99.90
52034;DHT22;38045;52.988;6.536;2023-02-28T06:36:05;1.90;99.90
52034;DHT22;38045;52.988;6.536;2023-02-28T06:38:32;1.80;99.90
52034;DHT22;38045;52.988;6.536;2023-02-28T06:40:59;1.90;99.90
52034;DHT22;38045;52.988;6.536;2023-02-28T06:43:30;1.80;99.90
52034;DHT22;38045;52.988;6.536;2023-02-28T06:45:57;1.80;99.90
52034;DHT22;38045;52.988;6.536;2023-02-28T06:48:24;1.70;99.90
52034;DHT22;38045;52.988;6.536;2023-02-28T06:50:52;1.70;99.90
52034;DHT22;38045;52.988;6.536;2023-02-28T06:53:17;1.70;99.90
52034;DHT22;38045;52.988;6.536;2023-02-28T06:55:43;1.70;99.90
52034;DHT22;38045;52.988;6.536;2023-02-28T06:58:09;1.80;99.90
52034;DHT22;38045;52.988;6.536;2023-02-28T07:00:44;1.80;99.90
52034;DHT22;38045;52.988;6.536;2023-02-28T07:03:12;1.80;99.90
52034;DHT22;38045;52.988;6.536;2023-02-28T07:05:38;1.80;99.90
52034;DHT22;38045;52.988;6.536;2023-02-28T07:08:05;1.80;99.90
52034;DHT22;38045;52.988;6.536;2023-02-28T07:10:36;1.90;99.90
52034;DHT22;38045;52.988;6.536;2023-02-28T07:13:03;1.90;99.90
52034;DHT22;38045;52.988;6.536;2023-02-28T07:15:29;1.90;99.90
52034;DHT22;38045;52.988;6.536;2023-02-28T07:17:55;1.90;99.90
52034;DHT22;38045;52.988;6.536;2023-02-28T07:20:23;2.00;99.90
52034;DHT22;38045;52.988;6.536;2023-02-28T07:22:50;2.00;99.90
52034;DHT22;38045;52.988;6.536;2023-02-28T07:25:23;2.00;99.90
52034;DHT22;38045;52.988;6.536;2023-02-28T07:27:48;2.10;99.90
52034;DHT22;38045;52.988;6.536;2023-02-28T07:30:14;2.10;99.90
52034;DHT22;38045;52.988;6.536;2023-02-28T07:32:40;2.10;99.90
52034;DHT22;38045;52.988;6.536;2023-02-28T07:35:06;2.10;99.90
52034;DHT22;38045;52.988;6.536;2023-02-28T07:37:31;2.10;99.90
52034;DHT22;38045;52.988;6.536;2023-02-28T07:40:03;2.10;99.90
52034;DHT22;38045;52.988;6.536;2023-02-28T07:42:32;2.00;99.90
52034;DHT22;38045;52.988;6.536;2023-02-28T07:44:57;2.00;99.90
52034;DHT22;38045;52.988;6.536;2023-02-28T07:47:24;2.10;99.90
52034;DHT22;38045;52.988;6.536;2023-02-28T07:49:50;2.10;99.90
52034;DHT22;38045;52.988;6.536;2023-02-28T07:52:15;2.20;99.90
52034;DHT22;38045;52.988;6.536;2023-02-28T07:54:41;2.10;99.90
52034;DHT22;38045;52.988;6.536;2023-02-28T07:57:07;2.20;99.90
52034;DHT22;38045;52.988;6.536;2023-02-28T07:59:33;2.20;99.90
52034;DHT22;38045;52.988;6.536;2023-02-28T08:01:58;2.20;99.90
52034;DHT22;38045;52.988;6.536;2023-02-28T08:04:24;2.20;99.90
52034;DHT22;38045;52.988;6.536;2023-02-28T08:06:50;2.20;99.90
52034;DHT22;38045;52.988;6.536;2023-02-28T08:09:19;2.20;99.90
52034;DHT22;38045;52.988;6.536;2023-02-28T08:11:45;2.20;99.90
52034;DHT22;38045;52.988;6.536;2023-02-28T08:14:11;2.20;99.90
52034;DHT22;38045;52.988;6.536;2023-02-28T08:16:36;2.30;99.90
52034;DHT22;38045;52.988;6.536;2023-02-28T08:19:02;2.30;99.90
52034;DHT22;38045;52.988;6.536;2023-02-28T08:21:28;2.30;99.90
52034;DHT22;38045;52.988;6.536;2023-02-28T08:23:53;2.40;99.90
52034;DHT22;38045;52.988;6.536;2023-02-28T08:26:19;2.50;99.90
52034;DHT22;38045;52.988;6.536;2023-02-28T08:28:46;2.60;99.90
52034;DHT22;38045;52.988;6.536;2023-02-28T08:31:14;2.60;99.90
52034;DHT22;38045;52.988;6.536;2023-02-28T08:33:40;2.60;99.90
52034;DHT22;38045;52.988;6.536;2023-02-28T08:36:07;2.60;99.90
52034;DHT22;38045;52.988;6.536;2023-02-28T08:38:34;2.70;99.90
52034;DHT22;38045;52.988;6.536;2023-02-28T08:41:03;2.70;99.90
52034;DHT22;38045;52.988;6.536;2023-02-28T08:43:28;2.70;99.90
52034;DHT22;38045;52.988;6.536;2023-02-28T08:45:55;2.80;99.90
52034;DHT22;38045;52.988;6.536;2023-02-28T08:48:25;2.80;99.90
52034;DHT22;38045;52.988;6.536;2023-02-28T08:50:59;2.90;99.90
52034;DHT22;38045;52.988;6.536;2023-02-28T08:53:25;3.00;99.90
52034;DHT22;38045;52.988;6.536;2023-02-28T08:56:08;3.10;99.90
52034;DHT22;38045;52.988;6.536;2023-02-28T08:58:34;3.30;99.90
52034;DHT22;38045;52.988;6.536;2023-02-28T09:01:06;3.30;99.90
52034;DHT22;38045;52.988;6.536;2023-02-28T09:03:32;3.30;99.90
52034;DHT22;38045;52.988;6.536;2023-02-28T09:05:59;3.30;99.90
52034;DHT22;38045;52.988;6.536;2023-02-28T09:08:27;3.30;99.90
52034;DHT22;38045;52.988;6.536;2023-02-28T09:10:54;3.30;99.90
52034;DHT22;38045;52.988;6.536;2023-02-28T09:13:22;3.50;99.90
52034;DHT22;38045;52.988;6.536;2023-02-28T09:15:47;3.60;99.90
52034;DHT22;38045;52.988;6.536;2023-02-28T09:18:14;3.60;99.90
52034;DHT22;38045;52.988;6.536;2023-02-28T09:20:40;3.60;99.90
52034;DHT22;38045;52.988;6.536;2023-02-28T09:23:07;3.60;99.90
52034;DHT22;38045;52.988;6.536;2023-02-28T09:25:33;3.60;99.90
52034;DHT22;38045;52.988;6.536;2023-02-28T09:27:59;3.70;99.90
52034;DHT22;38045;52.988;6.536;2023-02-28T09:30:24;3.80;99.90
52034;DHT22;38045;52.988;6.536;2023-02-28T09:32:50;3.90;99.90
52034;DHT22;38045;52.988;6.536;2023-02-28T09:35:23;4.00;99.90
52034;DHT22;38045;52.988;6.536;2023-02-28T09:37:50;4.10;99.90
52034;DHT22;38045;52.988;6.536;2023-02-28T09:40:20;4.20;99.90
52034;DHT22;38045;52.988;6.536;2023-02-28T09:42:49;4.40;99.90
52034;DHT22;38045;52.988;6.536;2023-02-28T09:45:35;4.50;99.90
52034;DHT22;38045;52.988;6.536;2023-02-28T09:48:23;4.60;99.90
52034;DHT22;38045;52.988;6.536;2023-02-28T09:51:02;4.80;99.90
52034;DHT22;38045;52.988;6.536;2023-02-28T09:53:31;4.80;99.90
52034;DHT22;38045;52.988;6.536;2023-02-28T09:56:44;4.80;99.90
52034;DHT22;38045;52.988;6.536;2023-02-28T09:58:59;4.80;99.90
52034;DHT22;38045;52.988;6.536;2023-02-28T10:07:11;5.10;99.90
52034;DHT22;38045;52.988;6.536;2023-02-28T10:09:44;5.20;99.90
52034;DHT22;38045;52.988;6.536;2023-02-28T10:12:11;5.40;99.90
52034;DHT22;38045;52.988;6.536;2023-02-28T10:14:39;5.40;99.90
52034;DHT22;38045;52.988;6.536;2023-02-28T10:17:30;5.50;99.90
52034;DHT22;38045;52.988;6.536;2023-02-28T10:20:05;5.50;99.90
52034;DHT22;38045;52.988;6.536;2023-02-28T10:23:04;5.70;99.90
52034;DHT22;38045;52.988;6.536;2023-02-28T10:25:34;5.90;99.90
52034;DHT22;38045;52.988;6.536;2023-02-28T10:28:14;6.00;99.90
52034;DHT22;38045;52.988;6.536;2023-02-28T10:30:43;6.10;99.90
52034;DHT22;38045;52.988;6.536;2023-02-28T10:33:28;6.20;99.90
52034;DHT22;38045;52.988;6.536;2023-02-28T10:35:54;6.40;99.90
52034;DHT22;38045;52.988;6.536;2023-02-28T10:38:28;6.50;99.90
52034;DHT22;38045;52.988;6.536;2023-02-28T10:41:08;6.40;99.90
52034;DHT22;38045;52.988;6.536;2023-02-28T10:43:34;6.50;99.90
52034;DHT22;38045;52.988;6.536;2023-02-28T10:48:47;6.70;99.90
52034;DHT22;38045;52.988;6.536;2023-02-28T10:51:18;6.70;99.90
52034;DHT22;38045;52.988;6.536;2023-02-28T10:53:49;6.80;99.90
52034;DHT22;38045;52.988;6.536;2023-02-28T10:56:18;6.70;99.90
52034;DHT22;38045;52.988;6.536;2023-02-28T11:01:22;6.80;99.90
52034;DHT22;38045;52.988;6.536;2023-02-28T11:03:49;7.00;99.90
52034;DHT22;38045;52.988;6.536;2023-02-28T11:06:26;7.30;99.90
52034;DHT22;38045;52.988;6.536;2023-02-28T11:08:54;7.60;99.90
52034;DHT22;38045;52.988;6.536;2023-02-28T11:11:22;7.60;99.90
52034;DHT22;38045;52.988;6.536;2023-02-28T11:13:52;7.50;99.90
52034;DHT22;38045;52.988;6.536;2023-02-28T11:16:19;7.70;99.90
52034;DHT22;38045;52.988;6.536;2023-02-28T11:18:50;7.70;99.90
52034;DHT22;38045;52.988;6.536;2023-02-28T11:21:37;7.80;99.90
52034;DHT22;38045;52.988;6.536;2023-02-28T11:26:47;8.00;99.90
52034;DHT22;38045;52.988;6.536;2023-02-28T11:29:24;8.20;99.90
52034;DHT22;38045;52.988;6.536;2023-02-28T11:34:40;8.60;99.90
52034;DHT22;38045;52.988;6.536;2023-02-28T11:37:15;8.70;99.90
52034;DHT22;38045;52.988;6.536;2023-02-28T11:39:42;8.80;99.90
52034;DHT22;38045;52.988;6.536;2023-02-28T11:42:49;9.00;99.90
52034;DHT22;38045;52.988;6.536;2023-02-28T11:48:46;9.40;99.90
52034;DHT22;38045;52.988;6.536;2023-02-28T11:56:53;10.10;99.90
52034;DHT22;38045;52.988;6.536;2023-02-28T11:59:51;10.20;99.90
52034;DHT22;38045;52.988;6.536;2023-02-28T12:02:29;10.30;99.90
52034;DHT22;38045;52.988;6.536;2023-02-28T12:08:10;10.60;99.90
52034;DHT22;38045;52.988;6.536;2023-02-28T12:10:49;10.50;99.90
52034;DHT22;38045;52.988;6.536;2023-02-28T12:13:36;10.50;99.90
52034;DHT22;38045;52.988;6.536;2023-02-28T12:27:09;9.20;99.90
52034;DHT22;38045;52.988;6.536;2023-02-28T12:30:31;9.50;99.90
52034;DHT22;38045;52.988;6.536;2023-02-28T12:32:42;9.60;99.90
52034;DHT22;38045;52.988;6.536;2023-02-28T12:37:36;10.10;99.90
52034;DHT22;38045;52.988;6.536;2023-02-28T12:40:14;10.40;99.90
52034;DHT22;38045;52.988;6.536;2023-02-28T12:43:05;10.00;99.90
52034;DHT22;38045;52.988;6.536;2023-02-28T12:45:50;10.20;99.90
52034;DHT22;38045;52.988;6.536;2023-02-28T12:49:00;10.30;99.90
52034;DHT22;38045;52.988;6.536;2023-02-28T12:51:25;10.50;99.90
52034;DHT22;38045;52.988;6.536;2023-02-28T12:54:06;10.90;99.90
52034;DHT22;38045;52.988;6.536;2023-02-28T13:04:52;11.60;99.90
52034;DHT22;38045;52.988;6.536;2023-02-28T13:10:01;11.30;99.90
52034;DHT22;38045;52.988;6.536;2023-02-28T13:12:27;11.30;99.90
52034;DHT22;38045;52.988;6.536;2023-02-28T13:17:31;11.20;99.90
52034;DHT22;38045;52.988;6.536;2023-02-28T13:19:58;11.30;99.90
52034;DHT22;38045;52.988;6.536;2023-02-28T13:22:42;11.40;99.90
52034;DHT22;38045;52.988;6.536;2023-02-28T13:27:47;11.20;99.90
52034;DHT22;38045;52.988;6.536;2023-02-28T13:33:26;10.50;99.90
52034;DHT22;38045;52.988;6.536;2023-02-28T13:38:58;9.60;99.90
52034;DHT22;38045;52.988;6.536;2023-02-28T13:51:51;9.40;99.90
52034;DHT22;38045;52.988;6.536;2023-02-28T14:05:36;11.10;98.60
52034;DHT22;38045;52.988;6.536;2023-02-28T14:08:19;12.30;98.30
52034;DHT22;38045;52.988;6.536;2023-02-28T14:10:51;13.70;98.30
52034;DHT22;38045;52.988;6.536;2023-02-28T14:16:04;15.50;97.40
52034;DHT22;38045;52.988;6.536;2023-02-28T14:18:36;16.70;94.20
52034;DHT22;38045;52.988;6.536;2023-02-28T14:21:21;17.30;92.20
52034;DHT22;38045;52.988;6.536;2023-02-28T14:32:39;17.10;86.30
52034;DHT22;38045;52.988;6.536;2023-02-28T14:35:17;17.30;90.50
52034;DHT22;38045;52.988;6.536;2023-02-28T14:37:45;17.80;81.70
52034;DHT22;38045;52.988;6.536;2023-02-28T14:40:32;18.60;93.10
52034;DHT22;38045;52.988;6.536;2023-02-28T14:43:00;19.10;91.60
52034;DHT22;38045;52.988;6.536;2023-02-28T14:45:34;19.10;77.00
52034;DHT22;38045;52.988;6.536;2023-02-28T14:48:02;19.20;79.50
52034;DHT22;38045;52.988;6.536;2023-02-28T14:50:35;19.70;75.30
52034;DHT22;38045;52.988;6.536;2023-02-28T14:53:01;19.70;89.70
52034;DHT22;38045;52.988;6.536;2023-02-28T14:55:32;19.90;85.90
52034;DHT22;38045;52.988;6.536;2023-02-28T14:58:04;20.00;83.30
52034;DHT22;38045;52.988;6.536;2023-02-28T15:00:36;20.20;86.10
52034;DHT22;38045;52.988;6.536;2023-02-28T15:03:34;20.20;77.80
52034;DHT22;38045;52.988;6.536;2023-02-28T15:06:04;19.80;72.20
52034;DHT22;38045;52.988;6.536;2023-02-28T15:08:31;19.80;82.40
52034;DHT22;38045;52.988;6.536;2023-02-28T15:11:07;19.30;84.80
52034;DHT22;38045;52.988;6.536;2023-02-28T15:13:41;19.10;74.30
52034;DHT22;38045;52.988;6.536;2023-02-28T15:18:43;18.80;75.50
52034;DHT22;38045;52.988;6.536;2023-02-28T15:21:16;17.90;81.50
52034;DHT22;38045;52.988;6.536;2023-02-28T15:24:20;16.40;75.40
52034;DHT22;38045;52.988;6.536;2023-02-28T15:26:42;14.90;82.10
52034;DHT22;38045;52.988;6.536;2023-02-28T15:29:17;13.70;85.30
52034;DHT22;38045;52.988;6.536;2023-02-28T15:31:48;13.20;80.20
52034;DHT22;38045;52.988;6.536;2023-02-28T15:34:24;12.90;83.30
52034;DHT22;38045;52.988;6.536;2023-02-28T15:36:52;13.60;82.10
52034;DHT22;38045;52.988;6.536;2023-02-28T15:39:26;14.50;84.60
52034;DHT22;38045;52.988;6.536;2023-02-28T15:42:18;15.10;80.20
52034;DHT22;38045;52.988;6.536;2023-02-28T15:44:44;15.40;79.10
52034;DHT22;38045;52.988;6.536;2023-02-28T15:47:18;15.50;83.40
52034;DHT22;38045;52.988;6.536;2023-02-28T15:49:51;15.40;78.60
52034;DHT22;38045;52.988;6.536;2023-02-28T15:52:24;14.60;79.40
52034;DHT22;38045;52.988;6.536;2023-02-28T15:54:51;13.90;81.10
52034;DHT22;38045;52.988;6.536;2023-02-28T15:57:28;13.20;83.10
52034;DHT22;38045;52.988;6.536;2023-02-28T15:59:57;12.70;84.00
52034;DHT22;38045;52.988;6.536;2023-02-28T16:02:34;11.90;83.20
52034;DHT22;38045;52.988;6.536;2023-02-28T16:05:19;11.30;84.80
52034;DHT22;38045;52.988;6.536;2023-02-28T16:07:46;10.80;86.10
52034;DHT22;38045;52.988;6.536;2023-02-28T16:10:13;10.50;87.30
52034;DHT22;38045;52.988;6.536;2023-02-28T16:12:40;10.20;87.60
52034;DHT22;38045;52.988;6.536;2023-02-28T16:15:21;10.00;88.20
52034;DHT22;38045;52.988;6.536;2023-02-28T16:17:47;9.90;87.80
52034;DHT22;38045;52.988;6.536;2023-02-28T16:20:27;9.60;87.50
52034;DHT22;38045;52.988;6.536;2023-02-28T16:22:54;9.40;87.50
52034;DHT22;38045;52.988;6.536;2023-02-28T16:25:28;9.20;89.80
52034;DHT22;38045;52.988;6.536;2023-02-28T16:27:54;9.00;89.10
52034;DHT22;38045;52.988;6.536;2023-02-28T16:30:25;8.90;89.90
52034;DHT22;38045;52.988;6.536;2023-02-28T16:32:52;8.70;88.30
52034;DHT22;38045;52.988;6.536;2023-02-28T16:35:19;8.50;89.60
52034;DHT22;38045;52.988;6.536;2023-02-28T16:37:45;8.30;90.60
52034;DHT22;38045;52.988;6.536;2023-02-28T16:40:20;8.20;90.90
52034;DHT22;38045;52.988;6.536;2023-02-28T16:42:48;8.00;91.60
52034;DHT22;38045;52.988;6.536;2023-02-28T16:45:20;8.00;91.80
52034;DHT22;38045;52.988;6.536;2023-02-28T16:47:47;8.00;92.10
52034;DHT22;38045;52.988;6.536;2023-02-28T16:50:21;7.90;90.80
52034;DHT22;38045;52.988;6.536;2023-02-28T16:52:48;7.80;92.10
52034;DHT22;38045;52.988;6.536;2023-02-28T16:55:15;7.60;92.70
52034;DHT22;38045;52.988;6.536;2023-02-28T16:57:41;7.50;92.70
52034;DHT22;38045;52.988;6.536;2023-02-28T17:00:11;7.40;93.40
52034;DHT22;38045;52.988;6.536;2023-02-28T17:02:38;7.40;94.10
52034;DHT22;38045;52.988;6.536;2023-02-28T17:05:04;7.30;94.50
52034;DHT22;38045;52.988;6.536;2023-02-28T17:07:30;7.30;94.50
52034;DHT22;38045;52.988;6.536;2023-02-28T17:09:56;7.20;94.80
52034;DHT22;38045;52.988;6.536;2023-02-28T17:12:21;7.10;95.00
52034;DHT22;38045;52.988;6.536;2023-02-28T17:14:47;7.10;95.70
52034;DHT22;38045;52.988;6.536;2023-02-28T17:17:17;7.00;96.50
52034;DHT22;38045;52.988;6.536;2023-02-28T17:19:43;6.80;96.70
52034;DHT22;38045;52.988;6.536;2023-02-28T17:22:09;6.80;96.90
52034;DHT22;38045;52.988;6.536;2023-02-28T17:24:35;6.70;96.70
52034;DHT22;38045;52.988;6.536;2023-02-28T17:27:01;6.70;97.20
52034;DHT22;38045;52.988;6.536;2023-02-28T17:29:27;6.60;97.60
52034;DHT22;38045;52.988;6.536;2023-02-28T17:31:52;6.60;97.60
52034;DHT22;38045;52.988;6.536;2023-02-28T17:34:18;6.50;98.00
52034;DHT22;38045;52.988;6.536;2023-02-28T17:36:50;6.40;98.40
52034;DHT22;38045;52.988;6.536;2023-02-28T17:39:18;6.40;98.40
52034;DHT22;38045;52.988;6.536;2023-02-28T17:41:56;6.40;98.90
52034;DHT22;38045;52.988;6.536;2023-02-28T17:44:22;6.40;99.30
52034;DHT22;38045;52.988;6.536;2023-02-28T17:46:49;6.30;99.80
52034;DHT22;38045;52.988;6.536;2023-02-28T17:49:16;6.20;99.90
52034;DHT22;38045;52.988;6.536;2023-02-28T17:51:41;6.10;99.90
52034;DHT22;38045;52.988;6.536;2023-02-28T17:54:07;6.00;99.90
52034;DHT22;38045;52.988;6.536;2023-02-28T17:56:33;6.00;99.90
52034;DHT22;38045;52.988;6.536;2023-02-28T17:58:58;6.00;99.90
52034;DHT22;38045;52.988;6.536;2023-02-28T18:01:24;5.90;99.90
52034;DHT22;38045;52.988;6.536;2023-02-28T18:03:53;5.90;99.90
52034;DHT22;38045;52.988;6.536;2023-02-28T18:06:29;5.80;99.90
52034;DHT22;38045;52.988;6.536;2023-02-28T18:08:56;5.70;99.90
52034;DHT22;38045;52.988;6.536;2023-02-28T18:11:23;5.60;99.90